Allen's Hourly Summary for Monday, July 9, 2018
Hour Temp
(f)
RH
(%)
Solar Rad.
(MJ/m2)
Rainfall
(in)
Wind
(mph)
7/9/2018 12:00 AM 76 85 0 0 0.03
7/9/2018 1:00 AM 75 83 0 0 0.05
7/9/2018 2:00 AM 75 84 0 0 0.02
7/9/2018 3:00 AM 75 86 0 0 0
7/9/2018 4:00 AM 75 85 0 0 0.09
7/9/2018 5:00 AM 74 86 0 0 0
7/9/2018 6:00 AM 73 89 0 0 0
7/9/2018 7:00 AM 73 87 0.03 0 0.08
7/9/2018 8:00 AM 75 74 0.43 0 0.19
7/9/2018 9:00 AM 79 67 1.17 0 0.75
7/9/2018 10:00 AM 82 63 1.89 0 0.83
7/9/2018 11:00 AM 84 59 2.31 0 1.86
7/9/2018 12:00 PM 85 52 3.06 0 2.48
7/9/2018 1:00 PM 87 47 3.54 0 3.13
7/9/2018 2:00 PM 86 49 2.72 0 3.97
7/9/2018 3:00 PM 85 51 2.05 0 4.2
7/9/2018 4:00 PM 82 61 0.5 0 2.44
7/9/2018 5:00 PM 82 61 0.44 0 1.97
7/9/2018 6:00 PM 83 57 1.06 0 2.44
7/9/2018 7:00 PM 86 56 1.17 0 3.15
7/9/2018 8:00 PM 79 61 0.28 0.19 3.55
7/9/2018 9:00 PM 77 76 0.06 0 0.95
7/9/2018 10:00 PM 77 76 0 0 0.98
7/9/2018 11:00 PM 77 75 0 0 0.69
Data Summary 79 69 20.71 0.19 1.41